createdAt,value
2019-02-15T00:01:32.993Z,83.30
2019-02-15T00:04:00.797Z,83.30
2019-02-15T00:06:28.629Z,84.60
2019-02-15T00:08:56.444Z,84.50
2019-02-15T00:11:24.276Z,85.60
2019-02-15T00:13:52.090Z,86.20
2019-02-15T00:16:19.878Z,84.50
2019-02-15T00:19:19.349Z,84.90
2019-02-15T00:21:49.667Z,84.70
2019-02-15T00:24:17.475Z,84.80
2019-02-15T00:26:45.301Z,84.80
2019-02-15T00:29:13.226Z,83.90
2019-02-15T00:31:41.061Z,83.40
2019-02-15T00:34:08.861Z,83.40
2019-02-15T00:36:36.692Z,83.20
2019-02-15T00:39:05.966Z,84.20
2019-02-15T00:41:33.846Z,83.50
2019-02-15T00:44:01.687Z,83.60
2019-02-15T00:46:42.563Z,83.00
2019-02-15T00:49:16.000Z,83.30
2019-02-15T00:52:12.412Z,84.00
2019-02-15T00:54:59.777Z,83.10
2019-02-15T00:57:50.391Z,83.60
2019-02-15T01:00:55.619Z,83.10
2019-02-15T01:03:42.448Z,83.50
2019-02-15T01:06:30.716Z,83.00
2019-02-15T01:09:18.156Z,83.60
2019-02-15T01:12:11.320Z,84.10
2019-02-15T01:14:39.099Z,83.70
2019-02-15T01:17:07.024Z,83.10
2019-02-15T01:19:34.865Z,82.90
2019-02-15T01:22:02.652Z,83.30
2019-02-15T01:24:30.455Z,82.80
2019-02-15T01:27:01.407Z,84.50
2019-02-15T01:29:47.381Z,85.10
2019-02-15T01:32:41.662Z,83.60
2019-02-15T01:35:31.376Z,84.40
2019-02-15T01:38:18.907Z,83.50
2019-02-15T01:41:04.217Z,83.40
2019-02-15T01:43:54.594Z,83.50
2019-02-15T01:46:29.279Z,83.90
2019-02-15T01:48:57.065Z,82.70
2019-02-15T01:51:24.857Z,83.80
2019-02-15T01:53:52.634Z,82.60
2019-02-15T01:56:20.430Z,83.80
2019-02-15T01:58:48.241Z,83.20
2019-02-15T02:01:20.885Z,83.90
2019-02-15T02:03:48.700Z,84.20
2019-02-15T02:06:17.081Z,85.70
2019-02-15T02:08:44.837Z,86.30
2019-02-15T02:11:32.041Z,86.10
2019-02-15T02:13:59.866Z,86.70
2019-02-15T02:16:27.698Z,85.10
2019-02-15T02:18:55.735Z,84.40
2019-02-15T02:21:23.525Z,83.80
2019-02-15T02:23:51.364Z,84.10
2019-02-15T02:26:19.118Z,84.20
2019-02-15T02:28:52.026Z,83.90
2019-02-15T02:31:19.768Z,83.20
2019-02-15T02:33:48.689Z,82.70
2019-02-15T02:36:16.443Z,83.70
2019-02-15T02:38:49.336Z,84.80
2019-02-15T02:41:34.606Z,83.30
2019-02-15T02:44:16.257Z,85.70
2019-02-15T02:46:44.103Z,86.10
2019-02-15T02:49:11.980Z,87.10
2019-02-15T02:51:39.779Z,85.70
2019-02-15T02:54:07.564Z,83.80
2019-02-15T02:56:35.351Z,83.40
2019-02-15T02:59:03.101Z,83.70
2019-02-15T03:01:30.887Z,82.70
2019-02-15T03:03:58.710Z,83.40
2019-02-15T03:06:26.527Z,84.80
2019-02-15T03:08:54.698Z,85.20
2019-02-15T03:11:22.460Z,84.00
2019-02-15T03:13:50.248Z,82.70
2019-02-15T03:16:18.049Z,82.90
2019-02-15T03:18:46.039Z,82.70
2019-02-15T03:21:13.845Z,83.00
2019-02-15T03:23:41.658Z,83.10
2019-02-15T03:26:09.479Z,82.70
2019-02-15T03:28:37.284Z,82.70
2019-02-15T03:31:05.096Z,82.70
2019-02-15T03:33:32.974Z,83.80
2019-02-15T03:36:03.087Z,83.60
2019-02-15T03:38:59.350Z,84.60
2019-02-15T03:41:30.196Z,84.90
2019-02-15T03:43:58.016Z,84.90
2019-02-15T03:46:25.882Z,84.80
2019-02-15T03:48:53.697Z,84.90
2019-02-15T03:51:21.470Z,86.70
2019-02-15T03:53:49.299Z,87.00
2019-02-15T03:56:17.072Z,87.70
2019-02-15T03:58:44.854Z,85.90
2019-02-15T04:01:12.611Z,86.50
2019-02-15T04:03:40.430Z,87.20
2019-02-15T04:06:08.275Z,85.80
2019-02-15T04:08:41.233Z,85.20
2019-02-15T04:11:09.046Z,86.50
2019-02-15T04:13:37.148Z,86.30
2019-02-15T04:16:04.916Z,86.40
2019-02-15T04:18:32.890Z,87.50
2019-02-15T04:21:00.684Z,89.20
2019-02-15T04:23:28.616Z,89.50
2019-02-15T04:25:56.495Z,88.80
2019-02-15T04:28:25.584Z,89.60
2019-02-15T04:30:54.626Z,89.90
2019-02-15T04:33:22.451Z,88.50
2019-02-15T04:35:50.277Z,87.50
2019-02-15T04:38:23.300Z,87.40
2019-02-15T04:40:51.092Z,87.40
2019-02-15T04:43:18.876Z,87.40
2019-02-15T04:45:46.727Z,87.00
2019-02-15T04:48:18.730Z,87.50
2019-02-15T04:50:46.531Z,87.20
2019-02-15T04:53:14.262Z,87.30
2019-02-15T04:55:42.108Z,87.60
2019-02-15T04:58:10.043Z,87.00
2019-02-15T05:00:37.845Z,85.70
2019-02-15T05:03:05.669Z,86.40
2019-02-15T05:05:33.495Z,85.90
2019-02-15T05:08:01.426Z,86.40
2019-02-15T05:10:29.272Z,86.90
2019-02-15T05:12:57.099Z,89.00
2019-02-15T05:15:24.921Z,89.10
2019-02-15T05:17:52.785Z,89.90
2019-02-15T05:20:20.535Z,90.00
2019-02-15T05:22:48.358Z,88.50
2019-02-15T05:25:16.190Z,89.80
2019-02-15T05:27:44.111Z,89.10
2019-02-15T05:30:11.958Z,88.60
2019-02-15T05:32:39.704Z,88.10
2019-02-15T05:35:07.584Z,89.20
2019-02-15T05:37:35.390Z,89.70
2019-02-15T05:40:03.406Z,89.90
2019-02-15T05:42:31.169Z,90.10
2019-02-15T05:45:03.538Z,90.40
2019-02-15T05:47:28.666Z,90.70
2019-02-15T05:49:56.506Z,90.50
2019-02-15T05:52:24.347Z,90.50
2019-02-15T05:54:52.119Z,90.30
2019-02-15T05:57:19.907Z,90.50
2019-02-15T05:59:47.702Z,90.70
2019-02-15T06:02:15.516Z,90.10
2019-02-15T06:04:43.304Z,89.60
2019-02-15T06:07:41.621Z,89.60
2019-02-15T06:10:28.842Z,89.20
2019-02-15T06:12:56.955Z,90.30
2019-02-15T06:15:24.771Z,90.10
2019-02-15T06:17:52.870Z,90.40
2019-02-15T06:20:20.707Z,90.40
2019-02-15T06:22:48.536Z,90.50
2019-02-15T06:25:16.339Z,90.40
2019-02-15T06:27:45.456Z,90.80
2019-02-15T06:30:13.233Z,91.00
2019-02-15T06:33:00.485Z,90.40
2019-02-15T06:35:28.324Z,91.20
2019-02-15T06:37:56.133Z,90.50
2019-02-15T06:40:23.923Z,89.60
2019-02-15T06:42:51.715Z,90.00
2019-02-15T06:45:24.888Z,90.30
2019-02-15T06:47:49.416Z,90.00
2019-02-15T06:50:17.199Z,89.80
2019-02-15T06:52:45.038Z,90.20
2019-02-15T06:55:12.798Z,88.70
2019-02-15T06:57:40.806Z,89.30
2019-02-15T07:00:31.901Z,87.60
2019-02-15T07:03:08.955Z,87.00
2019-02-15T07:05:36.773Z,87.10
2019-02-15T07:08:05.003Z,86.80
2019-02-15T07:10:32.879Z,85.40
2019-02-15T07:13:01.027Z,83.30
2019-02-15T07:15:33.879Z,82.40
2019-02-15T07:17:58.504Z,82.00
2019-02-15T07:20:26.393Z,82.00
2019-02-15T07:22:54.262Z,82.30
2019-02-15T07:25:22.111Z,81.90
2019-02-15T07:27:49.951Z,80.90
2019-02-15T07:30:17.744Z,80.60
2019-02-15T07:32:45.520Z,80.90
2019-02-15T07:35:13.327Z,79.80
2019-02-15T07:37:41.133Z,80.50
2019-02-15T07:40:09.366Z,77.40
2019-02-15T07:42:37.210Z,71.10
2019-02-15T07:45:06.412Z,64.40
2019-02-15T07:47:34.264Z,60.00
2019-02-15T07:50:02.211Z,55.90
2019-02-15T07:52:29.978Z,52.20
2019-02-15T07:54:57.749Z,50.70
2019-02-15T07:57:25.545Z,47.70
2019-02-15T07:59:53.353Z,45.90
2019-02-15T08:02:21.149Z,45.20
2019-02-15T08:04:48.949Z,43.50
2019-02-15T08:07:16.735Z,41.40
2019-02-15T08:09:44.592Z,37.40
2019-02-15T08:12:12.421Z,35.80
2019-02-15T08:14:40.251Z,35.20
2019-02-15T08:17:08.091Z,33.30
2019-02-15T08:19:35.921Z,32.40
2019-02-15T08:22:03.764Z,32.80
2019-02-15T08:24:31.568Z,36.70
2019-02-15T08:26:59.648Z,38.70
2019-02-15T08:29:27.446Z,42.20
2019-02-15T08:31:55.245Z,44.70
2019-02-15T08:34:23.130Z,46.90
2019-02-15T08:36:56.080Z,48.00
2019-02-15T08:39:24.143Z,49.60
2019-02-15T08:42:01.273Z,51.00
2019-02-15T08:44:21.671Z,53.30
2019-02-15T08:46:49.742Z,55.20
2019-02-15T08:49:17.547Z,55.40
2019-02-15T08:51:45.353Z,56.50
2019-02-15T08:54:13.194Z,58.60
2019-02-15T08:56:46.341Z,59.10
2019-02-15T08:59:14.119Z,59.50
2019-02-15T09:01:41.939Z,60.70
2019-02-15T09:04:09.722Z,61.50
2019-02-15T09:06:37.498Z,62.10
2019-02-15T09:09:06.418Z,63.90
2019-02-15T09:11:34.192Z,65.50
2019-02-15T09:14:02.016Z,65.10
2019-02-15T09:16:30.679Z,66.00
2019-02-15T09:18:58.503Z,65.60
2019-02-15T09:21:26.344Z,67.20
2019-02-15T09:23:54.141Z,67.70
2019-02-15T09:26:21.904Z,67.70
2019-02-15T09:28:54.340Z,68.40
2019-02-15T09:31:22.150Z,68.40
2019-02-15T09:33:49.915Z,69.10
2019-02-15T09:36:17.718Z,69.90
2019-02-15T09:38:45.753Z,69.00
2019-02-15T09:41:25.721Z,70.80
2019-02-15T09:43:55.530Z,71.10
2019-02-15T09:46:24.425Z,70.80
2019-02-15T09:48:52.339Z,70.90
2019-02-15T09:51:20.212Z,71.00
2019-02-15T09:53:48.061Z,71.10
2019-02-15T09:56:15.884Z,70.40
2019-02-15T09:58:43.786Z,70.60
2019-02-15T10:01:11.637Z,70.70
2019-02-15T10:03:39.422Z,71.10
2019-02-15T10:06:07.238Z,72.40
2019-02-15T10:08:35.157Z,70.90
2019-02-15T10:11:02.995Z,71.20
2019-02-15T10:13:30.796Z,71.20
2019-02-15T10:15:58.783Z,69.80
2019-02-15T10:18:26.859Z,69.90
2019-02-15T10:20:54.680Z,70.00
2019-02-15T10:23:25.262Z,69.90
2019-02-15T10:26:12.575Z,70.10
2019-02-15T10:28:45.312Z,69.80
2019-02-15T10:31:13.181Z,68.70
2019-02-15T10:33:41.011Z,69.00
2019-02-15T10:36:08.844Z,69.20
2019-02-15T10:38:36.644Z,68.60
2019-02-15T10:41:04.763Z,68.80
2019-02-15T10:43:32.673Z,67.40
2019-02-15T10:46:00.576Z,67.60
2019-02-15T10:48:28.470Z,66.80
2019-02-15T10:50:56.277Z,66.40
2019-02-15T10:53:24.038Z,65.20
2019-02-15T10:55:51.898Z,66.00
2019-02-15T10:58:26.412Z,65.60
2019-02-15T11:00:54.653Z,65.60
2019-02-15T11:03:22.427Z,64.90
2019-02-15T11:05:50.280Z,63.30
2019-02-15T11:08:18.045Z,64.10
2019-02-15T11:10:45.927Z,62.60
2019-02-15T11:13:13.720Z,60.10
2019-02-15T11:15:41.594Z,59.00
2019-02-15T11:18:09.787Z,59.10
2019-02-15T11:20:37.612Z,58.20
2019-02-15T11:23:05.431Z,52.30
2019-02-15T11:25:33.252Z,48.00
2019-02-15T11:28:01.141Z,43.20
2019-02-15T11:30:29.008Z,40.10
2019-02-15T11:32:56.844Z,36.00
2019-02-15T11:35:24.673Z,35.70
2019-02-15T11:38:07.831Z,33.10
2019-02-15T11:40:35.636Z,29.40
2019-02-15T11:43:03.466Z,26.60
2019-02-15T11:45:31.303Z,26.30
2019-02-15T11:47:59.102Z,24.90
2019-02-15T11:50:26.910Z,24.30
2019-02-15T11:52:54.764Z,24.00
2019-02-15T11:55:22.574Z,23.40
2019-02-15T11:57:50.540Z,21.80
2019-02-15T12:00:23.249Z,21.40
2019-02-15T12:02:51.219Z,20.60
2019-02-15T12:05:19.052Z,19.30
2019-02-15T12:07:47.460Z,19.40
2019-02-15T12:10:15.239Z,18.60
2019-02-15T12:12:43.089Z,18.10
2019-02-15T12:15:10.910Z,17.00
2019-02-15T12:17:46.131Z,17.20
2019-02-15T12:20:13.923Z,17.00
2019-02-15T12:22:41.730Z,15.60
2019-02-15T12:25:09.628Z,16.50
2019-02-15T12:27:38.130Z,15.60
2019-02-15T12:30:08.000Z,15.90
2019-02-15T12:32:35.870Z,15.70
2019-02-15T12:35:03.705Z,15.70
2019-02-15T12:37:31.757Z,16.40
2019-02-15T12:40:01.601Z,15.40
2019-02-15T12:42:29.470Z,15.90
2019-02-15T12:44:58.539Z,16.30
2019-02-15T12:47:27.112Z,16.30
2019-02-15T12:49:55.794Z,17.20
2019-02-15T12:52:23.703Z,17.30
2019-02-15T12:54:51.484Z,18.00
2019-02-15T12:57:21.471Z,18.00
2019-02-15T12:59:49.347Z,17.50
2019-02-15T13:02:17.614Z,18.30
2019-02-15T13:04:45.766Z,19.00
2019-02-15T13:07:13.758Z,19.70
2019-02-15T13:09:41.563Z,19.90
2019-02-15T13:12:09.329Z,20.20
2019-02-15T13:14:37.351Z,20.20
2019-02-15T13:17:05.416Z,20.60
2019-02-15T13:19:33.227Z,21.70
2019-02-15T13:22:01.048Z,20.80
2019-02-15T13:24:31.845Z,20.80
2019-02-15T13:26:59.862Z,20.40
2019-02-15T13:29:27.662Z,19.90
2019-02-15T13:31:55.502Z,19.30
2019-02-15T13:34:23.269Z,18.60
2019-02-15T13:36:51.155Z,17.80
2019-02-15T13:39:18.931Z,17.90
2019-02-15T13:41:46.711Z,18.00
2019-02-15T13:44:14.495Z,18.00
2019-02-15T13:46:42.326Z,18.10
2019-02-15T13:49:10.197Z,17.90
2019-02-15T13:51:38.050Z,17.70
2019-02-15T13:54:05.794Z,17.90
2019-02-15T13:56:33.586Z,17.80
2019-02-15T13:59:01.403Z,18.40
2019-02-15T14:01:29.187Z,18.60
2019-02-15T14:03:56.984Z,17.90
2019-02-15T14:06:24.760Z,18.20
2019-02-15T14:08:52.588Z,17.90
2019-02-15T14:11:20.370Z,17.80
2019-02-15T14:13:48.139Z,18.10
2019-02-15T14:16:15.899Z,18.20
2019-02-15T14:18:43.852Z,18.20
2019-02-15T14:21:11.678Z,18.20
2019-02-15T14:23:39.455Z,18.30
2019-02-15T14:26:07.273Z,18.30
2019-02-15T14:28:35.102Z,18.20
2019-02-15T14:31:02.892Z,18.20
2019-02-15T14:33:30.662Z,17.90
2019-02-15T14:35:58.456Z,18.00
2019-02-15T14:38:31.830Z,18.00
2019-02-15T14:40:59.704Z,17.80
2019-02-15T14:43:27.527Z,17.80
2019-02-15T14:45:55.341Z,17.50
2019-02-15T14:48:23.127Z,18.20
2019-02-15T14:50:51.209Z,17.50
2019-02-15T14:53:19.050Z,18.00
2019-02-15T14:55:46.887Z,18.70
2019-02-15T14:58:19.788Z,19.70
2019-02-15T15:00:47.621Z,19.50
2019-02-15T15:03:15.432Z,19.60
2019-02-15T15:05:43.295Z,19.50
2019-02-15T15:08:16.366Z,19.70
2019-02-15T15:10:44.174Z,20.00
2019-02-15T15:13:11.962Z,20.50
2019-02-15T15:15:39.740Z,20.20
2019-02-15T15:18:38.168Z,20.40
2019-02-15T15:21:06.046Z,20.80
2019-02-15T15:23:33.905Z,21.30
2019-02-15T15:26:11.404Z,21.90
2019-02-15T15:28:31.440Z,22.70
2019-02-15T15:30:59.243Z,23.30
2019-02-15T15:33:27.041Z,24.40
2019-02-15T15:35:54.861Z,24.10
2019-02-15T15:38:22.650Z,25.10
2019-02-15T15:40:50.531Z,26.40
2019-02-15T15:43:18.326Z,27.50
2019-02-15T15:45:46.202Z,28.20
2019-02-15T15:48:22.486Z,29.10
2019-02-15T15:50:43.724Z,29.90
2019-02-15T15:53:11.505Z,30.90
2019-02-15T15:55:39.306Z,31.00
2019-02-15T15:58:07.091Z,32.10
2019-02-15T16:00:39.039Z,33.00
2019-02-15T16:03:04.827Z,33.80
2019-02-15T16:05:32.661Z,34.70
2019-02-15T16:08:00.514Z,35.50
2019-02-15T16:10:28.312Z,36.00
2019-02-15T16:12:56.134Z,36.10
2019-02-15T16:15:23.933Z,36.70
2019-02-15T16:17:52.203Z,37.00
2019-02-15T16:20:20.054Z,37.20
2019-02-15T16:22:48.052Z,37.90
2019-02-15T16:25:16.013Z,38.50
2019-02-15T16:27:43.833Z,39.70
2019-02-15T16:30:11.827Z,39.50
2019-02-15T16:32:39.600Z,39.40
2019-02-15T16:35:07.701Z,39.70
2019-02-15T16:37:40.790Z,41.20
2019-02-15T16:40:11.889Z,42.00
2019-02-15T16:42:39.733Z,42.60
2019-02-15T16:45:09.813Z,44.70
2019-02-15T16:47:37.600Z,46.70
2019-02-15T16:50:05.531Z,46.50
2019-02-15T16:52:33.291Z,47.10
2019-02-15T16:55:01.417Z,47.70
2019-02-15T16:57:34.515Z,48.50
2019-02-15T17:00:02.437Z,49.20
2019-02-15T17:02:30.204Z,49.80
2019-02-15T17:04:58.035Z,49.20
2019-02-15T17:07:25.896Z,50.20
2019-02-15T17:09:53.676Z,50.30
2019-02-15T17:12:21.485Z,49.70
2019-02-15T17:14:49.307Z,50.80
2019-02-15T17:17:17.281Z,52.10
2019-02-15T17:19:45.030Z,53.20
2019-02-15T17:22:12.875Z,53.60
2019-02-15T17:24:40.716Z,54.10
2019-02-15T17:27:09.931Z,54.20
2019-02-15T17:29:37.751Z,56.10
2019-02-15T17:32:05.575Z,55.90
2019-02-15T17:34:33.374Z,56.30
2019-02-15T17:37:06.727Z,57.20
2019-02-15T17:39:34.524Z,57.40
2019-02-15T17:42:02.334Z,58.30
2019-02-15T17:44:30.150Z,57.30
2019-02-15T17:46:58.135Z,57.30
2019-02-15T17:49:25.905Z,58.20
2019-02-15T17:51:53.767Z,58.80
2019-02-15T17:54:21.602Z,59.50
2019-02-15T17:56:49.562Z,60.00
2019-02-15T17:59:17.352Z,61.20
2019-02-15T18:01:45.197Z,61.70
2019-02-15T18:04:32.413Z,61.20
2019-02-15T18:07:00.280Z,64.80
2019-02-15T18:09:28.094Z,62.10
2019-02-15T18:11:55.918Z,62.10
2019-02-15T18:14:24.943Z,63.20
2019-02-15T18:16:52.788Z,62.40
2019-02-15T18:19:20.603Z,63.20
2019-02-15T18:21:48.354Z,63.60
2019-02-15T18:24:16.227Z,64.30
2019-02-15T18:26:44.124Z,65.10
2019-02-15T18:29:11.945Z,66.00
2019-02-15T18:31:39.788Z,66.80
2019-02-15T18:34:07.631Z,66.50
2019-02-15T18:36:35.445Z,66.60
2019-02-15T18:39:04.303Z,67.50
2019-02-15T18:41:32.095Z,67.20
2019-02-15T18:43:59.970Z,67.30
2019-02-15T18:46:27.844Z,68.50
2019-02-15T18:49:00.987Z,68.20
2019-02-15T18:51:28.785Z,68.30
2019-02-15T18:53:56.576Z,69.40
2019-02-15T18:56:24.328Z,69.20
2019-02-15T18:58:52.493Z,69.80
2019-02-15T19:01:20.327Z,71.30
2019-02-15T19:03:48.200Z,69.90
2019-02-15T19:06:16.011Z,69.60
2019-02-15T19:08:54.145Z,69.90
2019-02-15T19:11:21.984Z,70.30
2019-02-15T19:13:49.825Z,69.70
2019-02-15T19:16:17.692Z,71.00
2019-02-15T19:18:45.728Z,70.20
2019-02-15T19:21:13.529Z,71.20
2019-02-15T19:23:42.487Z,71.30
2019-02-15T19:26:10.434Z,71.20
2019-02-15T19:28:43.573Z,71.70
2019-02-15T19:31:11.444Z,71.10
2019-02-15T19:33:39.293Z,71.10
2019-02-15T19:36:07.448Z,71.00
2019-02-15T19:38:35.613Z,72.80
2019-02-15T19:41:03.499Z,71.80
2019-02-15T19:43:31.534Z,72.00
2019-02-15T19:45:59.580Z,72.00
2019-02-15T19:48:27.535Z,72.90
2019-02-15T19:50:55.404Z,73.10
2019-02-15T19:53:23.272Z,74.70
2019-02-15T19:55:51.149Z,74.80
2019-02-15T19:58:19.161Z,74.30
2019-02-15T20:00:51.097Z,75.90
2019-02-15T20:03:18.966Z,75.20
2019-02-15T20:05:46.910Z,74.60
2019-02-15T20:08:28.865Z,73.90
2019-02-15T20:11:02.906Z,74.10
2019-02-15T20:13:31.088Z,73.90
2019-02-15T20:15:59.226Z,74.30
2019-02-15T20:18:27.419Z,75.50
2019-02-15T20:20:55.444Z,74.40
2019-02-15T20:23:23.293Z,74.40
2019-02-15T20:25:51.131Z,74.20
2019-02-15T20:28:18.977Z,74.50
2019-02-15T20:30:46.831Z,75.10
2019-02-15T20:33:34.181Z,75.50
2019-02-15T20:36:02.102Z,75.90
2019-02-15T20:38:30.073Z,75.40
2019-02-15T20:40:57.925Z,75.40
2019-02-15T20:43:25.829Z,75.40
2019-02-15T20:45:53.735Z,75.40
2019-02-15T20:48:22.107Z,75.30
2019-02-15T20:50:50.078Z,76.20
2019-02-15T20:53:17.922Z,77.20
2019-02-15T20:55:45.750Z,77.30
2019-02-15T20:58:14.799Z,78.30
2019-02-15T21:00:42.676Z,77.90
2019-02-15T21:03:12.445Z,77.10
2019-02-15T21:05:40.290Z,78.60
2019-02-15T21:08:08.149Z,78.10
2019-02-15T21:10:36.006Z,77.80
2019-02-15T21:13:07.130Z,77.10
2019-02-15T21:15:35.021Z,77.30
2019-02-15T21:18:02.873Z,77.40
2019-02-15T21:20:30.759Z,78.00
2019-02-15T21:22:58.665Z,77.20
2019-02-15T21:25:29.522Z,77.80
2019-02-15T21:27:57.372Z,79.10
2019-02-15T21:30:28.297Z,78.80
2019-02-15T21:32:56.168Z,78.50
2019-02-15T21:35:24.043Z,79.30
2019-02-15T21:37:52.854Z,79.20
2019-02-15T21:40:20.712Z,79.90
2019-02-15T21:42:48.605Z,79.90
2019-02-15T21:45:16.425Z,79.80
2019-02-15T21:47:44.250Z,79.80
2019-02-15T21:50:17.197Z,79.80
2019-02-15T21:52:44.164Z,79.80
2019-02-15T21:55:11.811Z,79.80
2019-02-15T21:57:39.634Z,79.30
2019-02-15T22:00:11.509Z,80.40
2019-02-15T22:02:39.305Z,79.70
2019-02-15T22:05:07.276Z,79.70
2019-02-15T22:07:35.108Z,79.60
2019-02-15T22:10:03.300Z,79.80
2019-02-15T22:12:38.272Z,79.60
2019-02-15T22:15:09.889Z,80.40
2019-02-15T22:17:39.443Z,79.80
2019-02-15T22:20:09.469Z,79.60
2019-02-15T22:22:37.339Z,80.50
2019-02-15T22:25:05.342Z,80.10
2019-02-15T22:27:38.393Z,79.50
2019-02-15T22:30:09.262Z,79.40
2019-02-15T22:32:37.203Z,80.40
2019-02-15T22:35:05.358Z,79.70
2019-02-15T22:37:33.222Z,80.30
2019-02-15T22:40:31.143Z,79.30
2019-02-15T22:43:12.460Z,79.80
2019-02-15T22:45:40.286Z,80.10
2019-02-15T22:48:13.329Z,80.50
2019-02-15T22:50:41.243Z,81.50
2019-02-15T22:53:09.017Z,82.00
2019-02-15T22:55:36.780Z,81.10
2019-02-15T22:58:12.577Z,81.40
2019-02-15T23:00:48.678Z,81.40
2019-02-15T23:03:26.984Z,81.50
2019-02-15T23:05:55.125Z,81.00
2019-02-15T23:08:23.083Z,81.30
2019-02-15T23:10:50.914Z,81.20
2019-02-15T23:13:18.745Z,80.60
2019-02-15T23:15:46.546Z,81.30
2019-02-15T23:18:14.466Z,81.20
2019-02-15T23:20:45.333Z,82.30
2019-02-15T23:23:12.053Z,81.80
2019-02-15T23:25:39.806Z,82.20
2019-02-15T23:28:07.649Z,81.80
2019-02-15T23:30:35.492Z,82.20
2019-02-15T23:33:03.442Z,82.70
2019-02-15T23:35:31.300Z,82.40
2019-02-15T23:37:59.324Z,81.30
2019-02-15T23:40:27.124Z,81.40
2019-02-15T23:42:54.964Z,81.90
2019-02-15T23:45:22.780Z,81.80
2019-02-15T23:47:50.605Z,82.20
2019-02-15T23:50:18.472Z,82.10
2019-02-15T23:52:46.331Z,82.20
2019-02-15T23:55:14.160Z,81.30
2019-02-15T23:57:41.961Z,81.80
